Time,TemperatureF,DewpointF,PressureIn,WindDirection,WindDirectionDegrees,WindSpeedMPH,WindSpeedGustMPH,Humidity,HourlyPrecipIn,Conditions,Clouds,dailyrainin,SoftwareType,DateUTC
2013-10-26 00:12:00,35.0,27.0,-100.00,SSW,192,2.0,2.0,71,0.00,,,0.00,,2013-10-26 06:12:00,
2013-10-26 00:22:00,35.0,27.0,-100.00,SSW,192,2.0,2.0,71,0.00,,,0.00,,2013-10-26 06:22:00,
2013-10-26 00:42:00,35.0,26.0,-100.00,South,179,2.0,2.0,68,0.00,,,0.00,,2013-10-26 06:42:00,
2013-10-26 01:11:00,33.0,27.0,-100.00,SE,128,4.0,4.0,76,0.00,,,0.00,,2013-10-26 07:11:00,
2013-10-26 01:42:00,33.0,25.0,-100.00,South,188,2.0,2.0,73,0.00,,,0.00,,2013-10-26 07:42:00,
2013-10-26 02:11:00,33.0,26.0,-100.00,SSE,165,0.0,1.0,74,0.00,,,0.00,,2013-10-26 08:11:00,
2013-10-26 02:42:00,33.0,27.0,-100.00,SE,130,2.0,2.0,77,0.00,,,0.00,,2013-10-26 08:42:00,
2013-10-26 03:11:00,32.0,25.0,-100.00,SSE,155,0.0,1.0,74,0.00,,,0.00,,2013-10-26 09:11:00,
2013-10-26 04:13:00,30.0,24.0,-100.00,NNW,347,0.0,0.0,79,0.00,,,0.00,,2013-10-26 10:13:00,
2013-10-26 04:22:00,30.0,24.0,-100.00,NNW,347,0.0,0.0,79,0.00,,,0.00,,2013-10-26 10:22:00,
2013-10-26 04:42:00,29.0,24.0,-100.00,North,354,0.0,2.0,83,0.00,,,0.00,,2013-10-26 10:42:00,
2013-10-26 05:11:00,28.0,25.0,-100.00,South,172,1.0,2.0,86,0.00,,,0.00,,2013-10-26 11:11:00,
2013-10-26 06:12:00,27.0,24.0,-100.00,SSE,147,2.0,3.0,86,0.00,,,0.00,,2013-10-26 12:12:00,
2013-10-26 06:21:00,27.0,24.0,-100.00,SSE,147,2.0,3.0,86,0.00,,,0.00,,2013-10-26 12:21:00,
2013-10-26 07:11:00,26.0,23.0,-100.00,South,179,2.0,2.0,88,0.00,,,0.00,,2013-10-26 13:11:00,
2013-10-26 08:11:00,25.0,22.0,-100.00,NW,316,0.0,1.0,89,0.00,,,0.00,,2013-10-26 14:11:00,
2013-10-26 08:41:00,25.0,23.0,-100.00,West,271,0.0,2.0,89,0.00,,,0.00,,2013-10-26 14:41:00,
2013-10-26 09:12:00,27.0,23.0,-100.00,NNW,335,0.0,0.0,87,0.00,,,0.00,,2013-10-26 15:12:00,
2013-10-26 09:44:00,31.0,25.0,-100.00,NNE,23,0.0,1.0,76,0.00,,,0.00,,2013-10-26 15:44:00,
2013-10-26 10:14:00,34.0,26.0,-100.00,WNW,299,0.0,1.0,70,0.00,,,0.00,,2013-10-26 16:14:00,
2013-10-26 10:44:00,41.0,27.0,-100.00,WSW,237,0.0,2.0,57,0.00,,,0.00,,2013-10-26 16:44:00,
2013-10-26 11:12:00,44.0,27.0,-100.00,ENE,58,0.0,1.0,51,0.00,,,0.00,,2013-10-26 17:12:00,
2013-10-26 11:43:00,46.0,27.0,-100.00,ESE,116,2.0,3.0,48,0.00,,,0.00,,2013-10-26 17:43:00,
2013-10-26 12:12:00,49.0,29.0,-100.00,West,277,0.0,0.0,46,0.00,,,0.00,,2013-10-26 18:12:00,
2013-10-26 12:42:00,53.0,30.0,-100.00,SW,216,2.0,3.0,42,0.00,,,0.00,,2013-10-26 18:42:00,
2013-10-26 13:12:00,58.0,29.0,-100.00,ESE,109,2.0,3.0,33,0.00,,,0.00,,2013-10-26 19:12:00,
2013-10-26 13:42:00,59.0,29.0,-100.00,South,174,2.0,3.0,32,0.00,,,0.00,,2013-10-26 19:42:00,
2013-10-26 14:12:00,62.0,28.0,-100.00,SSW,195,3.0,4.0,27,0.00,,,0.00,,2013-10-26 20:12:00,
2013-10-26 14:42:00,63.0,30.0,-100.00,SW,222,3.0,5.0,29,0.00,,,0.00,,2013-10-26 20:42:00,
2013-10-26 15:11:00,64.0,29.0,-100.00,SSW,203,4.0,6.0,26,0.00,,,0.00,,2013-10-26 21:11:00,
2013-10-26 15:43:00,65.0,29.0,-100.00,SW,232,2.0,4.0,26,0.00,,,0.00,,2013-10-26 21:43:00,
2013-10-26 16:13:00,66.0,29.0,-100.00,SSW,199,3.0,5.0,24,0.00,,,0.00,,2013-10-26 22:13:00,
2013-10-26 16:44:00,66.0,27.0,-100.00,SW,224,3.0,4.0,23,0.00,,,0.00,,2013-10-26 22:44:00,
2013-10-26 17:12:00,66.0,27.0,-100.00,West,278,2.0,3.0,23,0.00,,,0.00,,2013-10-26 23:12:00,
2013-10-26 17:42:00,67.0,28.0,-100.00,WSW,240,1.0,2.0,23,0.00,,,0.00,,2013-10-26 23:42:00,
2013-10-26 18:11:00,66.0,29.0,-100.00,West,278,0.0,1.0,24,0.00,,,0.00,,2013-10-27 00:11:00,
2013-10-26 18:42:00,55.0,30.0,-100.00,West,272,3.0,4.0,38,0.00,,,0.00,,2013-10-27 00:42:00,
2013-10-26 19:11:00,54.0,31.0,-100.00,NNW,329,1.0,3.0,42,0.00,,,0.00,,2013-10-27 01:11:00,
2013-10-26 19:42:00,53.0,30.0,-100.00,NE,40,1.0,1.0,41,0.00,,,0.00,,2013-10-27 01:42:00,
2013-10-26 20:12:00,48.0,31.0,-100.00,ESE,104,2.0,3.0,51,0.00,,,0.00,,2013-10-27 02:12:00,
2013-10-26 20:42:00,46.0,31.0,-100.00,East,93,2.0,3.0,56,0.00,,,0.00,,2013-10-27 02:42:00,
2013-10-26 21:11:00,43.0,30.0,-100.00,East,95,3.0,4.0,60,0.00,,,0.00,,2013-10-27 03:11:00,
2013-10-26 21:45:00,43.0,29.0,-100.00,SE,124,1.0,2.0,58,0.00,,,0.00,,2013-10-27 03:45:00,
2013-10-26 22:02:00,-999.0,-99.9,-100.00,SSE,164,2.0,3.0,-999,-99.99,,,-99.99,,2013-10-27 04:02:00,
2013-10-26 22:13:00,40.0,30.0,-100.00,SSE,164,2.0,3.0,65,0.00,,,0.00,,2013-10-27 04:13:00,
2013-10-26 22:44:00,40.0,28.0,-100.00,SW,215,3.0,3.0,63,0.00,,,0.00,,2013-10-27 04:44:00,
2013-10-26 23:13:00,40.0,28.0,-100.00,WNW,285,0.0,1.0,63,0.00,,,0.00,,2013-10-27 05:13:00,